createdAt,value
2019-05-30T00:02:08.262Z,13.15
2019-05-30T00:04:40.796Z,17.87
2019-05-30T00:07:13.682Z,20.37
2019-05-30T00:09:46.474Z,20.23
2019-05-30T00:12:19.253Z,17.15
2019-05-30T00:14:52.249Z,17.15
2019-05-30T00:17:25.021Z,16.52
2019-05-30T00:19:58.800Z,15.18
2019-05-30T00:22:33.298Z,13.00
2019-05-30T00:25:09.095Z,9.78
2019-05-30T00:27:41.576Z,10.38
2019-05-30T00:30:24.490Z,10.72
2019-05-30T00:32:49.705Z,9.85
2019-05-30T00:35:22.624Z,10.20
2019-05-30T00:37:55.656Z,9.93
2019-05-30T00:40:28.856Z,10.40
2019-05-30T00:43:02.087Z,10.95
2019-05-30T00:45:35.044Z,11.00
2019-05-30T00:48:07.807Z,11.10
2019-05-30T00:50:40.610Z,10.65
2019-05-30T00:53:13.322Z,10.30
2019-05-30T00:55:46.072Z,11.40
2019-05-30T00:58:18.847Z,11.65
2019-05-30T01:00:51.364Z,11.40
2019-05-30T01:03:24.417Z,11.65
2019-05-30T01:05:58.721Z,11.55
2019-05-30T01:08:32.249Z,16.07
2019-05-30T01:11:05.372Z,19.77
2019-05-30T01:13:38.198Z,20.12
2019-05-30T01:16:10.872Z,18.55
2019-05-30T01:18:43.755Z,23.35
2019-05-30T01:21:17.063Z,22.15
2019-05-30T01:23:49.728Z,22.23
2019-05-30T01:26:22.308Z,19.45
2019-05-30T01:28:55.092Z,17.70
2019-05-30T01:31:28.710Z,17.10
2019-05-30T01:34:01.648Z,15.63
2019-05-30T01:36:34.874Z,15.73
2019-05-30T01:39:08.897Z,14.15
2019-05-30T01:41:41.986Z,13.53
2019-05-30T01:44:14.766Z,12.50
2019-05-30T01:46:47.188Z,12.50
2019-05-30T01:49:20.033Z,13.55
2019-05-30T01:51:53.432Z,14.43
2019-05-30T01:54:26.288Z,13.32
2019-05-30T01:56:59.082Z,12.50
2019-05-30T01:59:31.651Z,12.25
2019-05-30T02:02:07.095Z,13.50
2019-05-30T02:04:39.894Z,16.35
2019-05-30T02:07:13.378Z,15.77
2019-05-30T02:09:46.158Z,15.68
2019-05-30T02:12:19.164Z,15.18
2019-05-30T02:14:51.773Z,12.40
2019-05-30T02:17:25.712Z,12.13
2019-05-30T02:19:59.676Z,12.45
2019-05-30T02:22:32.430Z,11.55
2019-05-30T02:25:06.448Z,11.65
2019-05-30T02:27:41.276Z,11.63
2019-05-30T02:30:15.164Z,11.20
2019-05-30T02:32:48.133Z,11.08
2019-05-30T02:35:21.067Z,12.05
2019-05-30T02:37:53.728Z,13.65
2019-05-30T02:40:26.457Z,17.55
2019-05-30T02:43:01.017Z,16.40
2019-05-30T02:45:33.826Z,14.83
2019-05-30T02:48:07.369Z,13.13
2019-05-30T02:50:40.209Z,11.65
2019-05-30T02:53:13.491Z,11.17
2019-05-30T02:55:46.907Z,10.63
2019-05-30T02:58:19.389Z,9.50
2019-05-30T03:00:52.355Z,9.58
2019-05-30T03:03:24.737Z,9.15
2019-05-30T03:05:57.833Z,8.88
2019-05-30T03:08:30.394Z,9.25
2019-05-30T03:11:04.462Z,8.70
2019-05-30T03:13:37.297Z,8.73
2019-05-30T03:16:11.810Z,8.75
2019-05-30T03:18:44.256Z,8.98
2019-05-30T03:21:17.081Z,9.40
2019-05-30T03:23:50.123Z,9.25
2019-05-30T03:26:23.055Z,9.30
2019-05-30T03:28:55.320Z,8.48
2019-05-30T03:31:30.505Z,8.38
2019-05-30T03:34:08.199Z,8.20
2019-05-30T03:36:37.670Z,8.30
2019-05-30T03:39:14.497Z,7.97
2019-05-30T03:41:45.469Z,7.65
2019-05-30T03:44:18.780Z,7.80
2019-05-30T03:46:57.519Z,7.67
2019-05-30T03:49:32.763Z,7.92
2019-05-30T03:52:09.983Z,8.20
2019-05-30T03:54:44.042Z,7.30
2019-05-30T03:57:19.813Z,7.62
2019-05-30T04:00:02.122Z,7.05
2019-05-30T04:02:57.441Z,7.15
2019-05-30T04:05:33.459Z,7.33
2019-05-30T04:08:11.884Z,7.05
2019-05-30T04:10:46.617Z,6.70
2019-05-30T04:13:42.009Z,7.10
2019-05-30T04:16:15.838Z,6.95
2019-05-30T04:21:21.697Z,6.47
2019-05-30T04:23:54.277Z,6.50
2019-05-30T04:26:27.161Z,6.22
2019-05-30T04:28:59.919Z,5.80
2019-05-30T04:31:33.861Z,5.35
2019-05-30T04:34:08.188Z,5.10
2019-05-30T04:36:42.051Z,5.42
2019-05-30T04:39:15.245Z,5.12
2019-05-30T04:41:48.557Z,4.87
2019-05-30T04:44:21.151Z,5.37
2019-05-30T04:46:53.920Z,5.03
2019-05-30T04:49:26.601Z,5.20
2019-05-30T04:51:59.478Z,5.28
2019-05-30T04:54:31.957Z,6.20
2019-05-30T04:57:04.983Z,4.75
2019-05-30T04:59:37.724Z,5.35
2019-05-30T05:02:13.551Z,4.90
2019-05-30T05:04:46.173Z,5.00
2019-05-30T05:07:19.826Z,4.87
2019-05-30T05:09:52.619Z,5.10
2019-05-30T05:12:25.222Z,4.58
2019-05-30T05:14:57.788Z,4.50
2019-05-30T05:17:30.681Z,4.35
2019-05-30T05:20:03.298Z,4.33
2019-05-30T05:22:35.738Z,4.55
2019-05-30T05:25:08.513Z,4.70
2019-05-30T05:27:41.321Z,4.33
2019-05-30T05:30:14.168Z,4.10
2019-05-30T05:32:47.049Z,4.70
2019-05-30T05:35:20.884Z,4.20
2019-05-30T05:37:53.551Z,4.40
2019-05-30T05:40:26.435Z,4.70
2019-05-30T05:42:59.217Z,4.62
2019-05-30T05:45:31.697Z,4.28
2019-05-30T05:48:04.473Z,4.15
2019-05-30T05:50:36.855Z,4.33
2019-05-30T05:53:09.711Z,4.63
2019-05-30T05:55:42.217Z,4.87
2019-05-30T05:58:14.993Z,4.33
2019-05-30T06:00:48.399Z,4.20
2019-05-30T06:03:22.233Z,4.20
2019-05-30T06:05:55.180Z,4.53
2019-05-30T06:08:27.965Z,5.58
2019-05-30T06:11:00.738Z,4.13
2019-05-30T06:13:33.493Z,4.55
2019-05-30T06:16:06.104Z,4.08
2019-05-30T06:18:38.674Z,4.22
2019-05-30T06:21:11.458Z,3.93
2019-05-30T06:23:45.732Z,4.37
2019-05-30T06:26:18.211Z,4.30
2019-05-30T06:28:51.016Z,4.40
2019-05-30T06:31:24.484Z,5.20
2019-05-30T06:33:57.035Z,4.87
2019-05-30T06:36:29.884Z,3.85
2019-05-30T06:39:02.765Z,4.03
2019-05-30T06:41:35.571Z,4.10
2019-05-30T06:46:40.493Z,4.10
2019-05-30T06:49:13.393Z,4.40
2019-05-30T06:51:45.770Z,3.95
2019-05-30T06:54:18.385Z,4.30
2019-05-30T06:56:50.926Z,4.67
2019-05-30T06:59:23.690Z,4.10
2019-05-30T07:01:56.182Z,4.10
2019-05-30T07:04:34.513Z,3.77
2019-05-30T07:07:05.988Z,4.15
2019-05-30T07:09:37.298Z,4.10
2019-05-30T07:12:12.058Z,3.95
2019-05-30T07:14:44.290Z,4.05
2019-05-30T07:17:17.176Z,4.00
2019-05-30T07:19:49.736Z,3.97
2019-05-30T07:22:23.469Z,3.98
2019-05-30T07:24:56.051Z,3.87
2019-05-30T07:27:29.867Z,4.45
2019-05-30T07:30:02.406Z,4.05
2019-05-30T07:32:36.124Z,4.10
2019-05-30T07:35:08.983Z,4.00
2019-05-30T07:37:41.583Z,3.98
2019-05-30T07:40:19.423Z,3.85
2019-05-30T07:42:49.333Z,4.00
2019-05-30T07:45:22.553Z,4.00
2019-05-30T07:47:55.045Z,3.87
2019-05-30T07:50:28.349Z,3.80
2019-05-30T07:53:01.043Z,3.67
2019-05-30T07:58:06.090Z,4.03
2019-05-30T08:00:38.984Z,3.95
2019-05-30T08:03:11.861Z,3.95
2019-05-30T08:05:44.519Z,4.55
2019-05-30T08:08:17.124Z,4.08
2019-05-30T08:10:49.898Z,4.37
2019-05-30T08:13:22.458Z,3.80
2019-05-30T08:15:55.063Z,3.75
2019-05-30T08:18:27.719Z,4.33
2019-05-30T08:21:00.497Z,4.15
2019-05-30T08:23:34.272Z,4.12
2019-05-30T08:26:06.911Z,4.58
2019-05-30T08:28:42.552Z,4.25
2019-05-30T08:31:13.796Z,3.92
2019-05-30T08:33:47.547Z,5.28
2019-05-30T08:36:21.206Z,4.17
2019-05-30T08:38:53.967Z,4.00
2019-05-30T08:41:26.663Z,5.23
2019-05-30T08:43:59.457Z,4.17
2019-05-30T08:46:32.431Z,4.05
2019-05-30T08:49:05.936Z,3.33
2019-05-30T08:51:38.396Z,3.33
2019-05-30T08:54:13.718Z,3.25
2019-05-30T08:56:45.594Z,3.58
2019-05-30T08:59:18.294Z,3.47
2019-05-30T09:01:53.151Z,3.75
2019-05-30T09:04:25.296Z,3.50
2019-05-30T09:06:57.770Z,3.40
2019-05-30T09:09:30.544Z,4.00
2019-05-30T09:12:03.227Z,3.65
2019-05-30T09:14:37.388Z,3.72
2019-05-30T09:17:10.461Z,3.58
2019-05-30T09:19:43.282Z,3.60
2019-05-30T09:22:16.815Z,3.90
2019-05-30T09:24:49.662Z,3.58
2019-05-30T09:27:22.580Z,3.52
2019-05-30T09:29:55.240Z,3.75
2019-05-30T09:32:27.844Z,3.30
2019-05-30T09:35:00.413Z,3.30
2019-05-30T09:37:33.179Z,3.33
2019-05-30T09:40:11.190Z,3.27
2019-05-30T09:42:44.758Z,3.60
2019-05-30T09:45:19.299Z,3.50
2019-05-30T09:47:52.006Z,3.27
2019-05-30T09:50:24.689Z,3.45
2019-05-30T09:52:57.592Z,3.42
2019-05-30T09:55:30.147Z,3.40
2019-05-30T09:58:02.726Z,3.27
2019-05-30T10:00:36.979Z,3.35
2019-05-30T10:03:09.461Z,3.45
2019-05-30T10:05:43.394Z,3.35
2019-05-30T10:08:16.317Z,2.85
2019-05-30T10:10:49.628Z,2.83
2019-05-30T10:13:29.125Z,3.50
2019-05-30T10:16:19.039Z,3.45
2019-05-30T10:22:57.470Z,3.50
2019-05-30T10:25:30.254Z,3.77
2019-05-30T10:28:02.927Z,4.28
2019-05-30T10:30:35.811Z,4.05
2019-05-30T10:33:08.486Z,4.08
2019-05-30T10:35:41.486Z,3.67
2019-05-30T10:50:03.979Z,3.85
2019-05-30T10:53:07.800Z,3.90
2019-05-30T10:55:43.374Z,3.15
2019-05-30T10:58:16.048Z,3.35
2019-05-30T11:00:55.808Z,3.20
2019-05-30T11:03:29.080Z,3.17
2019-05-30T11:06:23.071Z,3.30
2019-05-30T11:08:58.921Z,3.42
2019-05-30T11:11:31.477Z,3.27
2019-05-30T11:14:04.213Z,3.37
2019-05-30T11:16:36.738Z,3.50
2019-05-30T11:19:10.641Z,3.45
2019-05-30T11:21:43.135Z,5.30
2019-05-30T11:24:16.010Z,3.92
2019-05-30T11:26:50.671Z,5.05
2019-05-30T11:29:22.902Z,5.58
2019-05-30T11:31:56.941Z,3.70
2019-05-30T11:34:29.591Z,3.92
2019-05-30T11:37:18.102Z,4.10
2019-05-30T11:39:36.403Z,4.08
2019-05-30T11:42:09.183Z,5.37
2019-05-30T11:44:42.662Z,5.25
2019-05-30T11:47:15.361Z,5.15
2019-05-30T11:49:49.493Z,4.87
2019-05-30T11:52:22.055Z,5.00
2019-05-30T11:54:55.754Z,5.50
2019-05-30T11:57:28.440Z,5.17
2019-05-30T12:00:01.253Z,5.30
2019-05-30T12:02:33.891Z,5.50
2019-05-30T12:05:07.913Z,5.50
2019-05-30T12:07:40.591Z,5.30
2019-05-30T12:10:13.897Z,5.65
2019-05-30T12:12:46.362Z,4.65
2019-05-30T12:15:20.713Z,4.90
2019-05-30T12:17:53.352Z,3.40
2019-05-30T12:20:26.530Z,3.35
2019-05-30T12:23:00.006Z,3.33
2019-05-30T12:25:32.633Z,3.35
2019-05-30T12:28:05.391Z,3.45
2019-05-30T12:30:37.886Z,2.87
2019-05-30T12:33:10.664Z,3.80
2019-05-30T12:35:43.238Z,3.47
2019-05-30T12:38:16.023Z,4.20
2019-05-30T12:40:48.681Z,3.90
2019-05-30T12:51:09.026Z,3.30
2019-05-30T12:53:41.664Z,3.10
2019-05-30T12:56:14.491Z,3.05
2019-05-30T12:58:47.210Z,3.02
2019-05-30T13:01:19.958Z,3.40
2019-05-30T13:03:52.553Z,2.90
2019-05-30T13:06:25.412Z,3.22
2019-05-30T13:08:58.849Z,3.40
2019-05-30T13:11:31.921Z,2.92
2019-05-30T13:14:05.059Z,2.98
2019-05-30T13:16:37.688Z,3.10
2019-05-30T13:19:10.735Z,2.98
2019-05-30T13:21:43.139Z,3.12
2019-05-30T13:24:15.832Z,3.10
2019-05-30T13:26:48.548Z,3.33
2019-05-30T13:29:21.323Z,3.37
2019-05-30T13:31:53.961Z,3.45
2019-05-30T13:34:26.762Z,3.10
2019-05-30T13:36:59.239Z,3.12
2019-05-30T13:39:32.017Z,3.37
2019-05-30T13:42:05.864Z,3.30
2019-05-30T13:44:38.499Z,2.80
2019-05-30T13:47:11.383Z,3.50
2019-05-30T13:49:44.150Z,3.65
2019-05-30T13:52:16.943Z,3.40
2019-05-30T13:54:50.032Z,3.35
2019-05-30T13:57:23.103Z,3.50
2019-05-30T13:59:55.604Z,3.30
2019-05-30T14:02:28.392Z,3.40
2019-05-30T14:05:02.250Z,3.60
2019-05-30T14:07:34.767Z,3.67
2019-05-30T14:10:10.510Z,3.50
2019-05-30T14:12:43.305Z,3.37
2019-05-30T14:15:16.298Z,3.50
2019-05-30T14:17:48.871Z,3.20
2019-05-30T14:20:21.537Z,3.58
2019-05-30T14:22:54.433Z,4.80
2019-05-30T14:25:27.111Z,4.50
2019-05-30T14:27:59.867Z,4.87
2019-05-30T14:30:32.976Z,3.98
2019-05-30T14:33:06.090Z,3.77
2019-05-30T14:35:38.546Z,3.65
2019-05-30T14:38:11.325Z,3.67
2019-05-30T14:40:43.906Z,3.90
2019-05-30T14:43:16.793Z,4.97
2019-05-30T14:45:49.479Z,13.05
2019-05-30T14:48:22.054Z,15.97
2019-05-30T14:50:54.829Z,11.85
2019-05-30T14:53:27.718Z,11.28
2019-05-30T14:56:00.587Z,10.00
2019-05-30T14:58:33.290Z,6.65
2019-05-30T15:01:07.026Z,7.85
2019-05-30T15:03:39.847Z,7.67
2019-05-30T15:06:15.382Z,7.15
2019-05-30T15:08:46.743Z,5.60
2019-05-30T15:11:19.550Z,5.25
2019-05-30T15:13:52.225Z,4.72
2019-05-30T15:16:24.902Z,4.10
2019-05-30T15:18:57.560Z,3.40
2019-05-30T15:21:30.268Z,3.63
2019-05-30T15:24:05.658Z,3.60
2019-05-30T15:26:38.295Z,4.00
2019-05-30T15:29:12.170Z,3.58
2019-05-30T15:31:44.713Z,3.67
2019-05-30T15:34:17.250Z,3.50
2019-05-30T15:36:49.825Z,3.50
2019-05-30T15:39:32.418Z,3.27
2019-05-30T15:41:56.607Z,3.25
2019-05-30T15:44:29.173Z,3.50
2019-05-30T15:47:02.085Z,3.55
2019-05-30T15:49:34.551Z,3.53
2019-05-30T15:54:39.289Z,4.15
2019-05-30T15:57:13.263Z,3.92
2019-05-30T15:59:45.870Z,3.80
2019-05-30T16:02:20.405Z,4.03
2019-05-30T16:04:52.933Z,3.92
2019-05-30T16:07:26.372Z,3.58
2019-05-30T16:09:59.043Z,3.55
2019-05-30T16:12:31.845Z,3.50
2019-05-30T16:15:08.008Z,3.60
2019-05-30T16:17:40.365Z,3.55
2019-05-30T16:20:15.848Z,3.60
2019-05-30T16:22:48.724Z,3.85
2019-05-30T16:25:21.768Z,3.80
2019-05-30T16:27:54.481Z,3.87
2019-05-30T16:30:27.993Z,5.70
2019-05-30T16:33:00.961Z,6.00
2019-05-30T16:35:34.476Z,5.35
2019-05-30T16:38:07.233Z,5.80
2019-05-30T16:40:39.721Z,5.47
2019-05-30T16:43:12.502Z,6.40
2019-05-30T16:45:45.184Z,7.05
2019-05-30T16:48:18.361Z,7.42
2019-05-30T16:57:42.100Z,6.75
2019-05-30T17:00:15.953Z,6.85
2019-05-30T17:02:52.056Z,7.20
2019-05-30T17:05:24.844Z,6.30
2019-05-30T17:08:00.388Z,5.90
2019-05-30T17:10:33.546Z,6.17
2019-05-30T17:13:06.052Z,6.20
2019-05-30T17:15:38.940Z,6.65
2019-05-30T17:18:11.532Z,5.90
2019-05-30T17:20:44.512Z,6.12
2019-05-30T17:23:17.183Z,6.08
2019-05-30T17:25:50.067Z,5.87
2019-05-30T17:28:22.953Z,6.37
2019-05-30T17:30:55.616Z,6.08
2019-05-30T17:33:28.545Z,6.40
2019-05-30T17:36:01.196Z,6.28
2019-05-30T17:38:33.983Z,6.20
2019-05-30T17:41:08.094Z,6.17
2019-05-30T17:43:40.761Z,6.15
2019-05-30T17:46:13.458Z,6.60
2019-05-30T17:48:45.910Z,6.03
2019-05-30T17:51:19.691Z,5.78
2019-05-30T17:53:53.335Z,6.05
2019-05-30T17:56:26.199Z,6.60
2019-05-30T17:58:58.799Z,6.20
2019-05-30T18:01:31.681Z,6.17
2019-05-30T18:04:04.878Z,5.87
2019-05-30T18:06:38.754Z,6.33
2019-05-30T18:09:13.733Z,6.45
2019-05-30T18:11:54.908Z,6.85
2019-05-30T18:14:29.199Z,7.35
2019-05-30T18:17:01.987Z,27.58
2019-05-30T18:19:35.088Z,50.28
2019-05-30T18:22:08.392Z,52.67
2019-05-30T18:24:41.677Z,41.48
2019-05-30T18:27:15.897Z,39.83
2019-05-30T18:29:48.354Z,38.40
2019-05-30T18:32:21.978Z,35.17
2019-05-30T18:34:57.367Z,32.40
2019-05-30T18:37:28.766Z,19.23
2019-05-30T18:40:01.612Z,15.03
2019-05-30T18:42:35.132Z,11.85
2019-05-30T18:45:12.130Z,12.80
2019-05-30T18:47:45.634Z,11.73
2019-05-30T18:50:18.635Z,12.00
2019-05-30T18:52:51.792Z,16.57
2019-05-30T18:55:24.615Z,19.07
2019-05-30T18:57:57.067Z,14.47
2019-05-30T19:00:30.974Z,10.55
2019-05-30T19:03:04.792Z,12.55
2019-05-30T19:05:37.453Z,18.27
2019-05-30T19:08:12.124Z,24.77
2019-05-30T19:10:44.564Z,36.03
2019-05-30T19:13:17.185Z,33.00
2019-05-30T19:15:52.684Z,37.33
2019-05-30T19:18:25.482Z,33.35
2019-05-30T19:20:58.133Z,37.48
2019-05-30T19:23:34.330Z,34.98
2019-05-30T19:26:08.304Z,32.30
2019-05-30T19:28:41.348Z,28.25
2019-05-30T19:31:14.814Z,27.80
2019-05-30T19:33:47.903Z,27.63
2019-05-30T19:36:20.591Z,27.07
2019-05-30T19:38:54.775Z,25.72
2019-05-30T19:41:44.441Z,23.77
2019-05-30T19:44:02.188Z,24.23
2019-05-30T19:46:34.765Z,24.82
2019-05-30T19:49:08.649Z,24.57
2019-05-30T19:54:16.306Z,21.95
2019-05-30T19:56:49.586Z,21.35
2019-05-30T19:59:22.033Z,20.43
2019-05-30T20:01:54.957Z,21.55
2019-05-30T20:04:32.227Z,23.77
2019-05-30T20:07:08.282Z,22.67
2019-05-30T20:09:41.092Z,23.40
2019-05-30T20:12:13.869Z,23.67
2019-05-30T20:14:50.318Z,23.32
2019-05-30T20:17:22.790Z,24.52
2019-05-30T20:19:55.369Z,24.25
2019-05-30T20:22:28.368Z,24.27
2019-05-30T20:25:01.363Z,24.77
2019-05-30T20:27:34.664Z,25.00
2019-05-30T20:30:11.182Z,24.80
2019-05-30T20:32:43.806Z,22.60
2019-05-30T20:35:17.013Z,21.80
2019-05-30T20:37:49.569Z,23.10
2019-05-30T20:40:22.515Z,21.90
2019-05-30T20:42:55.546Z,21.80
2019-05-30T20:45:28.743Z,21.20
2019-05-30T20:48:01.626Z,20.82
2019-05-30T20:50:35.040Z,19.62
2019-05-30T20:53:07.703Z,19.25
2019-05-30T20:55:42.445Z,20.12
2019-05-30T20:58:14.989Z,20.80
2019-05-30T21:00:47.928Z,21.33
2019-05-30T21:03:21.500Z,21.35
2019-05-30T21:05:55.473Z,21.23
2019-05-30T21:08:28.078Z,19.45
2019-05-30T21:11:03.228Z,18.00
2019-05-30T21:13:36.259Z,16.05
2019-05-30T21:16:13.420Z,15.80
2019-05-30T21:18:47.035Z,16.45
2019-05-30T21:21:19.565Z,14.65
2019-05-30T21:23:52.451Z,15.03
2019-05-30T21:26:25.336Z,15.63
2019-05-30T21:28:58.219Z,15.13
2019-05-30T21:31:31.032Z,15.93
2019-05-30T21:34:04.299Z,15.50
2019-05-30T21:36:37.705Z,15.35
2019-05-30T21:39:11.371Z,19.07
2019-05-30T21:41:44.544Z,18.98
2019-05-30T21:44:18.132Z,19.37
2019-05-30T21:46:50.577Z,21.25
2019-05-30T21:49:23.349Z,21.30
2019-05-30T21:51:56.105Z,22.73
2019-05-30T21:54:29.030Z,23.45
2019-05-30T21:57:01.670Z,23.52
2019-05-30T21:59:34.253Z,24.37
2019-05-30T22:02:07.338Z,25.00
2019-05-30T22:04:40.481Z,23.75
2019-05-30T22:07:13.132Z,24.67
2019-05-30T22:09:45.956Z,24.15
2019-05-30T22:12:18.877Z,24.20
2019-05-30T22:14:52.008Z,24.00
2019-05-30T22:17:24.545Z,24.33
2019-05-30T22:19:57.654Z,23.52
2019-05-30T22:22:30.543Z,23.87
2019-05-30T22:25:03.521Z,25.40
2019-05-30T22:27:35.996Z,26.40
2019-05-30T22:30:09.497Z,26.87
2019-05-30T22:32:42.622Z,26.33
2019-05-30T22:35:15.539Z,26.77
2019-05-30T22:37:51.048Z,27.65
2019-05-30T22:40:24.533Z,26.68
2019-05-30T22:42:57.200Z,27.95
2019-05-30T22:45:29.772Z,27.65
2019-05-30T22:48:02.758Z,27.77
2019-05-30T22:50:35.633Z,26.80
2019-05-30T22:53:08.103Z,25.70
2019-05-30T22:55:40.830Z,25.05
2019-05-30T22:58:13.586Z,24.25
2019-05-30T23:00:46.350Z,24.98
2019-05-30T23:03:19.059Z,24.87
2019-05-30T23:05:51.729Z,24.65
2019-05-30T23:08:24.512Z,24.43
2019-05-30T23:10:57.273Z,22.65
2019-05-30T23:13:39.980Z,23.52
2019-05-30T23:16:04.292Z,21.00
2019-05-30T23:18:36.867Z,21.17
2019-05-30T23:21:09.546Z,21.20
2019-05-30T23:23:42.119Z,21.33
2019-05-30T23:26:15.107Z,22.40
2019-05-30T23:28:47.791Z,24.47
2019-05-30T23:31:20.283Z,23.10
2019-05-30T23:33:52.840Z,23.73
2019-05-30T23:36:25.604Z,21.65
2019-05-30T23:38:58.915Z,20.25
2019-05-30T23:41:31.579Z,19.23
2019-05-30T23:44:11.136Z,18.75
2019-05-30T23:46:38.550Z,18.30
2019-05-30T23:49:11.069Z,19.05
2019-05-30T23:51:43.750Z,19.50
2019-05-30T23:54:16.343Z,19.12
2019-05-30T23:56:50.395Z,20.45
2019-05-30T23:59:23.203Z,23.95
